Time;durP1;ratioP1;P1;durP2;ratioP2;P2;SDS_P1;SDS_P2;PMS_P1;PMS_P2;Temp;Humidity;BMP_temperature;BMP_pressure;BME280_temperature;BME280_humidity;BME280_pressure;Samples;Min_cycle;Max_cycle;Signal;HPM_P1;HPM_P2
2021/05/18 00:01:28;;;;;;;1.13;0.52;;;12.60;66.20;;;;;;4944942;29;20036;-67
2021/05/18 00:03:54;;;;;;;1.05;0.55;;;12.60;66.00;;;;;;4944581;29;20070;-67
2021/05/18 00:06:19;;;;;;;0.98;0.60;;;12.60;66.20;;;;;;4945129;29;20028;-67
2021/05/18 00:11:46;;;;;;;2.33;0.95;;;12.60;66.20;;;;;;4932431;29;20059;-67
2021/05/18 00:14:21;;;;;;;2.22;0.52;;;12.60;65.80;;;;;;4949910;29;20035;-67
2021/05/18 00:16:47;;;;;;;1.75;0.60;;;12.60;66.10;;;;;;4932625;29;20035;-67
2021/05/18 00:19:13;;;;;;;2.33;0.50;;;12.60;66.00;;;;;;4948457;29;20054;-67
2021/05/18 00:21:38;;;;;;;1.17;0.52;;;12.60;65.80;;;;;;4948696;29;20050;-67
2021/05/18 00:24:05;;;;;;;0.93;0.50;;;12.60;65.70;;;;;;4948885;29;20083;-67
2021/05/18 00:26:30;;;;;;;1.00;0.50;;;12.60;65.80;;;;;;4951007;29;20099;-67
2021/05/18 00:28:56;;;;;;;3.42;0.50;;;12.60;65.90;;;;;;4948835;29;20044;-68
2021/05/18 00:31:21;;;;;;;1.17;0.50;;;12.70;65.70;;;;;;4931266;29;20042;-68
2021/05/18 00:33:47;;;;;;;4.82;0.50;;;12.60;65.50;;;;;;4931711;29;20095;-68
2021/05/18 00:36:15;;;;;;;0.75;0.47;;;12.60;65.50;;;;;;4948295;29;20264;-68
2021/05/18 00:38:41;;;;;;;1.55;0.60;;;12.50;65.40;;;;;;4949874;29;20039;-68
2021/05/18 00:41:07;;;;;;;2.25;0.50;;;12.50;65.30;;;;;;4948720;29;20036;-68
2021/05/18 00:43:33;;;;;;;0.85;0.50;;;12.40;65.50;;;;;;4948104;29;20039;-68
2021/05/18 00:45:59;;;;;;;2.55;0.52;;;12.50;65.30;;;;;;4948143;29;20043;-68
2021/05/18 00:48:24;;;;;;;0.63;0.40;;;12.50;64.90;;;;;;4931251;29;20252;-67
2021/05/18 00:50:55;;;;;;;2.70;0.70;;;12.60;65.30;;;;;;4948287;29;20204;-67
2021/05/18 00:53:21;;;;;;;0.70;0.50;;;12.50;65.50;;;;;;4950200;29;20032;-67
2021/05/18 00:58:33;;;;;;;1.92;0.57;;;12.60;65.60;;;;;;4931542;29;20050;-68
2021/05/18 01:01:11;;;;;;;0.73;0.43;;;12.50;65.20;;;;;;4948046;29;20082;-68
2021/05/18 01:03:36;;;;;;;2.30;0.47;;;12.50;65.30;;;;;;4947863;29;20043;-69
2021/05/18 01:06:25;;;;;;;0.55;0.40;;;12.50;65.10;;;;;;4947536;29;20078;-67
2021/05/18 01:08:52;;;;;;;0.43;0.40;;;12.40;65.10;;;;;;4948002;29;20264;-67
2021/05/18 01:11:20;;;;;;;0.70;0.40;;;12.50;64.70;;;;;;4932302;29;20046;-68
2021/05/18 01:13:46;;;;;;;0.68;0.50;;;12.40;64.60;;;;;;4931086;29;20043;-67
2021/05/18 01:16:12;;;;;;;0.30;0.30;;;12.40;65.00;;;;;;4947705;29;20083;-67
2021/05/18 01:18:39;;;;;;;1.52;0.40;;;12.50;64.70;;;;;;4931037;29;20212;-67
2021/05/18 01:21:05;;;;;;;2.55;0.30;;;12.50;64.60;;;;;;4947410;29;20070;-67
2021/05/18 01:23:31;;;;;;;2.35;0.32;;;12.50;64.60;;;;;;4948067;29;20042;-67
2021/05/18 01:25:56;;;;;;;0.43;0.30;;;12.50;64.60;;;;;;4947683;29;20335;-66
2021/05/18 01:28:23;;;;;;;0.47;0.38;;;12.40;64.50;;;;;;4947492;29;20044;-67
2021/05/18 01:30:49;;;;;;;0.63;0.35;;;12.40;64.50;;;;;;4930454;29;20103;-66
2021/05/18 01:33:15;;;;;;;0.47;0.40;;;12.30;64.70;;;;;;4947276;29;20330;-67
2021/05/18 01:35:40;;;;;;;2.35;0.43;;;12.30;64.50;;;;;;4948928;29;20031;-67
2021/05/18 01:38:10;;;;;;;1.17;0.32;;;12.40;64.80;;;;;;4947069;29;20043;-67
2021/05/18 01:43:08;;;;;;;0.52;0.30;;;12.40;64.30;;;;;;4947465;29;20054;-67
2021/05/18 01:45:34;;;;;;;0.30;0.30;;;12.40;64.50;;;;;;4947280;29;20055;-67
2021/05/18 01:48:07;;;;;;;0.32;0.30;;;12.40;64.40;;;;;;4946951;29;20048;-67
2021/05/18 01:50:33;;;;;;;1.10;0.40;;;12.40;64.30;;;;;;4949217;29;20046;-67
2021/05/18 01:52:59;;;;;;;0.40;0.30;;;12.40;64.20;;;;;;4947378;29;20335;-67
2021/05/18 01:55:30;;;;;;;0.95;0.30;;;12.40;64.10;;;;;;4946855;29;20046;-67
2021/05/18 01:57:56;;;;;;;;;;;12.40;64.10;;;;;;4947631;29;20046;-68
2021/05/18 02:00:24;;;;;;;0.45;0.30;;;12.40;64.30;;;;;;4947112;29;19908;-67
2021/05/18 02:02:50;;;;;;;0.50;0.40;;;12.40;64.20;;;;;;4929706;29;20035;-67
2021/05/18 02:05:16;;;;;;;1.23;0.50;;;12.40;64.10;;;;;;4915776;29;20223;-67
2021/05/18 02:07:43;;;;;;;0.40;0.30;;;12.40;64.20;;;;;;4946696;29;20043;-67
2021/05/18 02:10:10;;;;;;;0.50;0.30;;;12.40;64.00;;;;;;4946988;29;20055;-67
2021/05/18 02:12:36;;;;;;;1.83;0.35;;;12.40;64.30;;;;;;4947003;29;20326;-67
2021/05/18 02:15:10;;;;;;;1.13;0.40;;;12.50;64.50;;;;;;4946552;29;20075;-67
2021/05/18 02:17:45;;;;;;;0.43;0.40;;;12.40;64.60;;;;;;4948111;29;20039;-68
2021/05/18 02:25:27;;;;;;;1.98;0.50;;;12.50;64.50;;;;;;4946330;29;20046;-67
2021/05/18 02:27:53;;;;;;;0.55;0.30;;;12.50;64.30;;;;;;4946139;29;20040;-67
2021/05/18 02:30:19;;;;;;;1.13;0.32;;;12.50;63.80;;;;;;4946533;29;20262;-68
2021/05/18 02:32:45;;;;;;;1.65;0.40;;;12.40;64.30;;;;;;4929621;29;20043;-67
2021/05/18 02:35:12;;;;;;;0.45;0.40;;;12.40;64.70;;;;;;4947469;29;20042;-68
2021/05/18 02:37:38;;;;;;;1.38;0.50;;;12.40;64.90;;;;;;4946213;29;20051;-67
2021/05/18 02:40:08;;;;;;;0.25;0.25;;;12.40;64.50;;;;;;4929110;29;20330;-68
2021/05/18 02:42:34;;;;;;;0.40;0.30;;;12.50;64.40;;;;;;4946081;29;20042;-68
2021/05/18 02:45:11;;;;;;;0.68;0.40;;;12.40;64.60;;;;;;4946249;29;20100;-67
2021/05/18 02:50:21;;;;;;;2.40;0.85;;;12.40;64.60;;;;;;4946516;29;20042;-67
2021/05/18 02:52:47;;;;;;;3.83;0.30;;;12.40;64.70;;;;;;4946490;29;20331;-67
2021/05/18 02:55:19;;;;;;;2.15;0.30;;;12.40;64.60;;;;;;4945793;29;20050;-67
2021/05/18 02:57:47;;;;;;;2.40;0.50;;;12.40;64.50;;;;;;4946229;29;20365;-67
2021/05/18 03:00:15;;;;;;;0.88;0.40;;;12.40;64.70;;;;;;4945662;29;20032;-67
2021/05/18 03:02:40;;;;;;;0.52;0.40;;;12.40;64.70;;;;;;4947231;29;20039;-68
2021/05/18 03:05:07;;;;;;;0.65;0.35;;;12.40;64.50;;;;;;4945577;29;20044;-67
2021/05/18 03:07:32;;;;;;;1.23;0.52;;;12.50;64.60;;;;;;4945711;29;20043;-67
2021/05/18 03:09:58;;;;;;;0.40;0.40;;;12.50;64.70;;;;;;4945310;29;20039;-67
2021/05/18 03:12:23;;;;;;;1.35;0.40;;;12.40;64.70;;;;;;4945501;29;20267;-67
2021/05/18 03:14:49;;;;;;;1.20;0.40;;;12.40;64.70;;;;;;4945946;29;20079;-67
2021/05/18 03:17:15;;;;;;;1.52;0.40;;;12.40;64.80;;;;;;4947287;29;20091;-67
2021/05/18 03:19:40;;;;;;;0.50;0.40;;;12.40;65.00;;;;;;4945890;29;20036;-67
2021/05/18 03:22:06;;;;;;;0.88;0.30;;;12.30;64.90;;;;;;4945268;29;20054;-68
2021/05/18 03:24:31;;;;;;;2.08;0.40;;;12.40;64.70;;;;;;4945364;29;20335;-67
2021/05/18 03:26:57;;;;;;;0.47;0.40;;;12.40;64.90;;;;;;4945592;29;20131;-68
2021/05/18 03:29:25;;;;;;;1.60;0.50;;;12.30;64.90;;;;;;4929968;29;20020;-67
2021/05/18 03:34:36;;;;;;;2.92;0.40;;;12.40;64.90;;;;;;4945226;29;20040;-67
2021/05/18 03:37:16;;;;;;;1.33;0.52;;;12.30;65.10;;;;;;4945426;29;20227;-68
2021/05/18 03:39:43;;;;;;;0.88;0.40;;;12.40;65.00;;;;;;4945231;29;20039;-67
2021/05/18 03:42:13;;;;;;;1.88;0.50;;;12.30;65.30;;;;;;4945427;29;20035;-68
2021/05/18 03:52:33;;;;;;;1.55;0.45;;;12.40;65.50;;;;;;4945378;29;20039;-68
2021/05/18 03:55:09;;;;;;;1.33;0.40;;;12.40;65.40;;;;;;4945321;29;20067;-67
2021/05/18 04:03:17;;;;;;;6.22;0.85;;;12.40;65.30;;;;;;4944949;29;20159;-67
2021/05/18 04:22:05;;;;;;;1.58;0.47;;;12.50;64.60;;;;;;4945116;29;20107;-69
2021/05/18 04:40:32;;;;;;;1.00;0.40;;;12.50;64.00;;;;;;4927744;29;20150;-67
2021/05/18 04:48:30;;;;;;;0.50;0.35;;;12.60;64.00;;;;;;4944397;29;20043;-68
2021/05/18 04:51:12;;;;;;;0.30;0.30;;;12.60;63.70;;;;;;4927487;29;20034;-66
2021/05/18 04:54:10;;;;;;;0.55;0.40;;;12.60;63.70;;;;;;4946406;29;20032;-68
2021/05/18 05:02:49;;;;;;;1.17;0.40;;;12.70;63.00;;;;;;4948126;29;20107;-64
2021/05/18 05:15:36;;;;;;;1.25;0.45;;;12.70;63.00;;;;;;4947700;29;20385;-65
2021/05/18 05:18:01;;;;;;;0.60;0.40;;;12.80;63.00;;;;;;4947356;29;20035;-66
2021/05/18 05:20:27;;;;;;;0.38;0.38;;;12.70;63.10;;;;;;4949178;29;20260;-68
2021/05/18 05:22:52;;;;;;;1.60;0.30;;;12.70;63.20;;;;;;4947794;29;20221;-66
2021/05/18 05:25:18;;;;;;;1.13;0.45;;;12.80;63.30;;;;;;4930503;29;20253;-65
2021/05/18 05:27:43;;;;;;;0.77;0.40;;;12.60;63.10;;;;;;4914501;29;20035;-65
2021/05/18 05:30:10;;;;;;;0.40;0.40;;;12.70;63.30;;;;;;4930589;29;20334;-65
2021/05/18 05:32:35;;;;;;;0.75;0.40;;;12.80;63.40;;;;;;4932161;29;20039;-69
2021/05/18 05:35:01;;;;;;;3.03;0.50;;;12.80;63.50;;;;;;4947692;29;20103;-67
2021/05/18 05:37:27;;;;;;;0.40;0.40;;;12.80;63.50;;;;;;4930110;29;20035;-69
2021/05/18 05:39:53;;;;;;;0.90;0.50;;;12.80;63.70;;;;;;4947249;29;20028;-66
2021/05/18 05:42:20;;;;;;;2.45;0.43;;;12.80;63.60;;;;;;4930496;29;20028;-68
2021/05/18 05:44:45;;;;;;;0.60;0.47;;;12.80;63.70;;;;;;4947371;29;20031;-66
2021/05/18 05:47:11;;;;;;;0.52;0.40;;;12.80;63.50;;;;;;4931609;29;20039;-68
2021/05/18 05:49:36;;;;;;;1.77;0.47;;;12.80;63.70;;;;;;4930726;29;20047;-67
2021/05/18 05:52:03;;;;;;;0.98;0.40;;;12.90;63.30;;;;;;4947259;29;20098;-67
2021/05/18 05:54:29;;;;;;;0.60;0.32;;;12.90;62.80;;;;;;4946541;29;20039;-66
2021/05/18 05:56:55;;;;;;;0.30;0.30;;;12.90;63.40;;;;;;4946689;29;20031;-66
2021/05/18 05:59:20;;;;;;;0.60;0.40;;;12.90;63.40;;;;;;4931716;29;20039;-67
2021/05/18 06:01:47;;;;;;;0.70;0.40;;;12.90;63.30;;;;;;4930371;29;20062;-67
2021/05/18 06:04:13;;;;;;;0.63;0.40;;;12.90;63.20;;;;;;4946511;29;20328;-64
2021/05/18 06:06:39;;;;;;;1.50;0.43;;;12.90;63.10;;;;;;4946618;29;20223;-66
2021/05/18 06:09:05;;;;;;;2.28;0.47;;;12.90;63.10;;;;;;4929685;29;20095;-68
2021/05/18 06:46:03;;;;;;;0.60;0.38;;;13.00;62.60;;;;;;4946171;29;20035;-66
2021/05/18 06:48:28;;;;;;;1.27;0.40;;;13.00;63.00;;;;;;4945911;29;20036;-66
2021/05/18 06:50:54;;;;;;;0.95;0.40;;;13.00;62.80;;;;;;4945889;29;20042;-66
2021/05/18 06:53:20;;;;;;;0.43;0.40;;;13.10;62.60;;;;;;4947390;29;20032;-66
2021/05/18 06:55:47;;;;;;;0.60;0.40;;;13.20;62.40;;;;;;4945853;29;20404;-66
2021/05/18 06:58:17;;;;;;;0.82;0.50;;;13.30;63.00;;;;;;4929314;29;20044;-66
2021/05/18 07:00:43;;;;;;;0.38;0.32;;;13.30;63.00;;;;;;4946040;29;20035;-66
2021/05/18 07:03:14;;;;;;;0.55;0.40;;;13.30;63.30;;;;;;4945699;29;20413;-65
2021/05/18 07:05:50;;;;;;;0.55;0.38;;;13.20;63.40;;;;;;4947505;29;20094;-65
2021/05/18 07:10:46;;;;;;;0.80;0.50;;;13.20;63.90;;;;;;4945878;29;20200;-65
2021/05/18 07:13:12;;;;;;;0.70;0.40;;;13.20;64.40;;;;;;4945159;29;20143;-65
2021/05/18 07:15:38;;;;;;;1.02;0.40;;;13.30;64.60;;;;;;4928455;29;20036;-65
2021/05/18 07:18:05;;;;;;;3.35;0.60;;;13.30;64.50;;;;;;4945302;29;20082;-67
2021/05/18 07:20:31;;;;;;;0.63;0.40;;;13.30;64.70;;;;;;4947278;29;20098;-65
2021/05/18 07:22:59;;;;;;;1.25;0.43;;;13.30;64.40;;;;;;4928578;29;20110;-66
2021/05/18 07:25:25;;;;;;;0.70;0.50;;;13.40;64.50;;;;;;4945236;29;20043;-66
2021/05/18 07:27:50;;;;;;;1.35;0.70;;;13.40;64.10;;;;;;4945404;29;20335;-65
2021/05/18 07:30:16;;;;;;;3.15;0.50;;;13.50;64.10;;;;;;4945248;29;20353;-66
2021/05/18 07:32:43;;;;;;;2.55;0.70;;;13.40;64.00;;;;;;4914237;29;20410;-66
2021/05/18 07:35:09;;;;;;;0.85;0.50;;;13.40;63.70;;;;;;4946039;29;20039;-69
2021/05/18 07:37:35;;;;;;;0.52;0.43;;;13.40;63.60;;;;;;4928564;29;20043;-68
2021/05/18 07:40:01;;;;;;;4.18;0.50;;;13.50;63.70;;;;;;4945229;29;20062;-65
2021/05/18 07:42:27;;;;;;;1.67;0.50;;;13.50;63.40;;;;;;4945135;29;20028;-67
2021/05/18 07:44:52;;;;;;;0.80;0.40;;;13.60;63.30;;;;;;4944922;29;20062;-70
2021/05/18 07:47:20;;;;;;;1.80;0.40;;;13.60;63.00;;;;;;4930096;29;20036;-69
2021/05/18 07:49:48;;;;;;;1.73;0.40;;;13.60;63.40;;;;;;4945447;29;20036;-69
2021/05/18 08:00:38;;;;;;;0.50;0.35;;;13.60;62.40;;;;;;4944980;29;20031;-67
2021/05/18 08:05:46;;;;;;;2.25;0.50;;;13.70;62.10;;;;;;4944798;29;20349;-67
2021/05/18 08:08:12;;;;;;;0.47;0.40;;;13.70;62.20;;;;;;4929941;29;20043;-67
2021/05/18 08:10:46;;;;;;;0.40;0.40;;;13.70;62.10;;;;;;4945095;29;20083;-68
2021/05/18 08:13:12;;;;;;;0.47;0.40;;;13.70;61.80;;;;;;4928265;29;20039;-69
2021/05/18 08:15:51;;;;;;;0.50;0.35;;;13.70;62.20;;;;;;4928019;29;20040;-69
2021/05/18 08:19:01;;;;;;;1.60;0.40;;;13.80;62.10;;;;;;4944873;29;20327;-70
2021/05/18 09:29:07;;;;;;;2.10;0.40;;;15.10;59.70;;;;;;4947704;29;20231;-67
2021/05/18 09:47:51;;;;;;;2.28;0.60;;;14.90;61.00;;;;;;4947272;29;20404;-66
2021/05/18 10:36:28;;;;;;;1.27;0.50;;;15.60;62.10;;;;;;4929272;29;20047;-63
2021/05/18 10:39:25;;;;;;;0.85;0.30;;;15.70;61.60;;;;;;4946382;29;20087;-62
2021/05/18 10:41:51;;;;;;;2.38;0.40;;;15.60;60.90;;;;;;4946182;29;20035;-63
2021/05/18 10:44:17;;;;;;;0.43;0.43;;;15.50;60.90;;;;;;4947834;29;20083;-63
2021/05/18 10:47:00;;;;;;;0.30;0.30;;;15.50;60.30;;;;;;4946305;29;20111;-65
2021/05/18 10:49:30;;;;;;;0.57;0.30;;;15.50;59.70;;;;;;4946459;29;20040;-64
2021/05/18 10:51:57;;;;;;;0.70;0.40;;;15.40;59.70;;;;;;4946182;29;20035;-63
2021/05/18 10:54:29;;;;;;;0.50;0.38;;;15.30;60.00;;;;;;4945604;29;20107;-64
2021/05/18 10:57:01;;;;;;;0.80;0.40;;;15.30;60.00;;;;;;4945917;29;20211;-65
2021/05/18 10:59:40;;;;;;;0.35;0.30;;;15.40;60.50;;;;;;4947465;29;20036;-63
2021/05/18 11:02:13;;;;;;;2.05;0.50;;;15.60;61.10;;;;;;4945719;29;20062;-64
2021/05/18 11:04:49;;;;;;;0.40;0.40;;;15.80;61.50;;;;;;4945624;29;20043;-64
2021/05/18 11:07:19;;;;;;;0.30;0.30;;;15.80;60.10;;;;;;4929760;29;20040;-64
2021/05/18 11:09:45;;;;;;;1.25;0.40;;;15.80;59.50;;;;;;4928810;29;20032;-64
2021/05/18 11:12:12;;;;;;;2.42;0.50;;;15.80;59.50;;;;;;4945435;29;20060;-64
2021/05/18 11:14:46;;;;;;;2.30;0.40;;;15.80;60.00;;;;;;4947027;29;20226;-65
2021/05/18 11:17:15;;;;;;;0.45;0.30;;;15.80;60.10;;;;;;4946205;29;20337;-66
2021/05/18 11:19:53;;;;;;;0.80;0.40;;;15.60;61.50;;;;;;4929027;29;20032;-64
2021/05/18 11:23:19;;;;;;;2.80;0.50;;;15.50;60.90;;;;;;4945335;29;20035;-65
2021/05/18 11:25:06;;;;;;;0.65;0.40;;;15.40;61.00;;;;;;4931105;29;20328;-65
2021/05/18 11:27:31;;;;;;;0.80;0.40;;;15.30;61.90;;;;;;4945231;29;20040;-66
2021/05/18 11:29:57;;;;;;;1.00;0.40;;;15.20;61.60;;;;;;4945217;29;20046;-65
2021/05/18 11:32:22;;;;;;;0.90;0.50;;;15.10;61.30;;;;;;4946832;29;20063;-66
2021/05/18 11:34:58;;;;;;;0.47;0.40;;;15.10;61.80;;;;;;4928602;29;20058;-66
2021/05/18 11:37:27;;;;;;;0.70;0.50;;;15.10;62.00;;;;;;4944946;29;20267;-66
2021/05/18 11:40:15;;;;;;;0.93;0.40;;;15.20;62.10;;;;;;4929026;29;20032;-66
2021/05/18 11:42:42;;;;;;;0.65;0.43;;;15.20;62.20;;;;;;4944937;29;20330;-66
2021/05/18 11:45:13;;;;;;;1.45;0.40;;;15.20;61.50;;;;;;4945347;29;20032;-66
2021/05/18 11:47:40;;;;;;;0.82;0.30;;;15.20;60.60;;;;;;4946827;29;20055;-66
2021/05/18 11:50:06;;;;;;;3.25;0.40;;;15.30;60.10;;;;;;4928505;29;20294;-66
2021/05/18 11:52:36;;;;;;;0.50;0.50;;;15.20;59.70;;;;;;4945129;29;20118;-66
2021/05/18 11:55:21;;;;;;;0.75;0.40;;;15.20;59.40;;;;;;4928234;29;20056;-66
2021/05/18 11:57:47;;;;;;;2.33;0.47;;;15.10;59.10;;;;;;4945390;29;20035;-67
2021/05/18 12:00:23;;;;;;;0.40;0.30;;;15.10;59.10;;;;;;4944732;29;20035;-68
2021/05/18 12:03:01;;;;;;;0.45;0.30;;;15.20;58.70;;;;;;4944795;29;20051;-68
2021/05/18 12:05:27;;;;;;;0.63;0.40;;;15.20;57.60;;;;;;4946759;29;20051;-67
2021/05/18 12:07:52;;;;;;;0.90;0.40;;;15.20;57.70;;;;;;4945768;29;20048;-67
2021/05/18 12:10:32;;;;;;;1.38;0.50;;;15.30;57.80;;;;;;4948806;29;20059;-67
2021/05/18 12:12:58;;;;;;;0.60;0.40;;;15.30;57.60;;;;;;4932008;29;20040;-68
2021/05/18 12:15:24;;;;;;;2.70;0.80;;;15.30;58.20;;;;;;4948455;29;20107;-68
2021/05/18 12:17:52;;;;;;;0.77;0.47;;;15.30;58.40;;;;;;4948234;29;20063;-68
2021/05/18 12:20:18;;;;;;;1.40;0.60;;;15.50;58.00;;;;;;4933345;29;20028;-68
2021/05/18 12:22:44;;;;;;;2.50;0.85;;;15.50;58.40;;;;;;4949010;29;20259;-68
2021/05/18 12:25:26;;;;;;;2.95;0.55;;;15.60;58.40;;;;;;4932056;29;20039;-67
2021/05/18 12:27:51;;;;;;;1.90;0.40;;;15.60;56.50;;;;;;4931859;29;20043;-68
2021/05/18 12:30:17;;;;;;;1.58;0.20;;;15.70;57.10;;;;;;4948620;29;20086;-66
2021/05/18 12:32:47;;;;;;;3.25;0.32;;;15.70;56.10;;;;;;4933053;29;20054;-65
2021/05/18 12:35:22;;;;;;;0.20;0.20;;;15.80;55.90;;;;;;4932156;29;20083;-65
2021/05/18 12:37:54;;;;;;;1.20;0.35;;;15.90;56.10;;;;;;4948630;29;20032;-65
2021/05/18 12:40:26;;;;;;;0.57;0.40;;;15.80;53.10;;;;;;4948257;29;20205;-65
2021/05/18 12:42:52;;;;;;;1.17;0.30;;;15.80;55.20;;;;;;4948276;29;20040;-64
2021/05/18 12:45:21;;;;;;;0.43;0.30;;;15.80;55.30;;;;;;4948439;29;20042;-64
2021/05/18 12:48:13;;;;;;;1.60;0.25;;;15.80;54.80;;;;;;4948122;29;20036;-65
2021/05/18 12:50:43;;;;;;;0.30;0.30;;;15.90;53.60;;;;;;4946148;29;20040;-65
2021/05/18 12:53:28;;;;;;;1.70;0.20;;;15.90;54.10;;;;;;4931269;29;20063;-65
2021/05/18 12:55:54;;;;;;;2.08;0.30;;;16.00;53.30;;;;;;4947965;29;20287;-65
2021/05/18 12:58:30;;;;;;;0.30;0.30;;;16.00;54.60;;;;;;4947670;29;20316;-65
2021/05/18 13:01:09;;;;;;;0.35;0.30;;;16.00;54.00;;;;;;4948453;29;20378;-64
2021/05/18 13:03:35;;;;;;;0.80;0.35;;;16.10;53.50;;;;;;4947864;29;20044;-66
2021/05/18 13:06:01;;;;;;;1.00;0.40;;;16.10;54.90;;;;;;4947710;29;20140;-66
2021/05/18 13:08:34;;;;;;;1.00;0.30;;;16.20;54.60;;;;;;4932699;29;20027;-65
2021/05/18 13:13:37;;;;;;;1.88;0.45;;;16.10;54.80;;;;;;4948073;29;20070;-63
2021/05/18 13:16:18;;;;;;;0.57;0.40;;;16.20;54.40;;;;;;4947757;29;20056;-65
2021/05/18 13:19:06;;;;;;;2.03;0.40;;;16.20;54.40;;;;;;4947183;29;20046;-64
2021/05/18 13:21:35;;;;;;;0.38;0.35;;;16.20;54.40;;;;;;4947391;29;20072;-65
2021/05/18 13:26:32;;;;;;;2.35;0.40;;;16.30;54.80;;;;;;4949248;29;20028;-64
2021/05/18 13:29:15;;;;;;;0.30;0.30;;;16.30;53.30;;;;;;4947438;29;20327;-63
2021/05/18 13:31:41;;;;;;;1.65;0.47;;;16.40;53.70;;;;;;4947752;29;20035;-63
2021/05/18 13:34:06;;;;;;;2.65;0.50;;;16.50;54.70;;;;;;4947348;29;20106;-64
2021/05/18 13:36:33;;;;;;;0.82;0.47;;;16.60;54.90;;;;;;4946998;29;20035;-63
2021/05/18 13:39:04;;;;;;;1.65;0.68;;;16.70;53.60;;;;;;4947127;29;20031;-63
2021/05/18 13:41:30;;;;;;;0.75;0.47;;;16.70;51.90;;;;;;4931804;29;20139;-64
2021/05/18 13:43:55;;;;;;;0.57;0.40;;;16.60;52.80;;;;;;4947334;29;20219;-65
2021/05/18 13:46:21;;;;;;;1.58;0.60;;;16.70;53.30;;;;;;4947158;29;20035;-65
2021/05/18 13:48:46;;;;;;;1.77;0.50;;;16.70;52.40;;;;;;4946873;29;20027;-66
2021/05/18 13:51:16;;;;;;;0.90;0.50;;;16.80;51.80;;;;;;4946979;29;20059;-65
2021/05/18 13:53:41;;;;;;;1.20;0.70;;;16.70;52.30;;;;;;4949032;29;20319;-67
2021/05/18 13:56:07;;;;;;;2.63;0.80;;;16.80;51.90;;;;;;4947045;29;20043;-67
2021/05/18 13:58:33;;;;;;;1.27;0.50;;;16.80;51.50;;;;;;4946778;29;20047;-67
2021/05/18 14:00:59;;;;;;;2.72;0.70;;;16.80;50.90;;;;;;4946748;29;20044;-67
2021/05/18 14:03:24;;;;;;;4.78;0.63;;;16.80;49.60;;;;;;4946467;29;20107;-66
2021/05/18 14:05:50;;;;;;;0.68;0.40;;;16.80;50.40;;;;;;4946425;29;20023;-67
2021/05/18 14:08:31;;;;;;;5.88;0.60;;;16.90;50.90;;;;;;4948500;29;20035;-66
2021/05/18 14:11:04;;;;;;;1.77;0.40;;;16.90;51.10;;;;;;4946875;29;20232;-67
2021/05/18 14:13:32;;;;;;;0.60;0.40;;;17.00;50.80;;;;;;4946702;29;20043;-67
2021/05/18 14:15:58;;;;;;;1.05;0.45;;;17.10;50.50;;;;;;4946733;29;20323;-67
2021/05/18 14:18:23;;;;;;;1.50;0.63;;;17.10;50.30;;;;;;4946525;29;20044;-67
2021/05/18 14:20:49;;;;;;;1.75;0.50;;;17.10;50.80;;;;;;4946392;29;20036;-67
2021/05/18 14:23:18;;;;;;;0.60;0.30;;;17.10;50.30;;;;;;4931420;29;20119;-67
2021/05/18 14:25:44;;;;;;;0.80;0.55;;;17.10;50.60;;;;;;4946669;29;20039;-67
2021/05/18 14:28:09;;;;;;;1.40;0.57;;;17.10;50.60;;;;;;4946511;29;20362;-67
2021/05/18 14:30:35;;;;;;;4.32;0.60;;;17.10;50.80;;;;;;4945845;29;20036;-68
2021/05/18 14:33:00;;;;;;;1.38;0.50;;;17.20;50.70;;;;;;4946025;29;20035;-67
2021/05/18 14:35:28;;;;;;;3.53;0.50;;;17.30;51.40;;;;;;4947836;29;20031;-68
2021/05/18 14:38:00;;;;;;;0.95;0.40;;;17.30;51.80;;;;;;4946244;29;20102;-69
2021/05/18 14:45:58;;;;;;;1.17;0.50;;;17.10;49.80;;;;;;4931866;29;20031;-67
2021/05/18 14:54:09;;;;;;;0.63;0.40;;;16.90;50.30;;;;;;4931456;29;20051;-69
2021/05/18 14:56:34;;;;;;;1.48;0.70;;;16.90;50.30;;;;;;4947324;29;20105;-68
2021/05/18 14:59:00;;;;;;;0.50;0.40;;;16.90;50.40;;;;;;4945766;29;20047;-67
2021/05/18 15:01:25;;;;;;;0.50;0.40;;;16.80;51.10;;;;;;4933450;29;20398;-67
2021/05/18 15:03:51;;;;;;;2.13;0.50;;;16.70;51.60;;;;;;4945539;29;20062;-68
2021/05/18 15:06:16;;;;;;;0.50;0.40;;;16.60;51.50;;;;;;4945217;29;20032;-67
2021/05/18 15:08:42;;;;;;;2.42;0.52;;;16.50;51.60;;;;;;4947580;29;20035;-68
2021/05/18 15:11:08;;;;;;;1.17;0.50;;;16.40;51.80;;;;;;4945636;29;20260;-67
2021/05/18 15:13:34;;;;;;;0.60;0.40;;;16.40;52.00;;;;;;4945734;29;20350;-67
2021/05/18 15:15:59;;;;;;;1.38;0.60;;;16.30;52.90;;;;;;4945358;29;20036;-67
2021/05/18 15:18:25;;;;;;;2.08;0.75;;;16.30;53.40;;;;;;4945217;29;20095;-68
2021/05/18 15:20:51;;;;;;;2.72;0.50;;;16.30;53.40;;;;;;4947536;29;20032;-67
2021/05/18 15:23:17;;;;;;;1.73;0.60;;;16.30;52.90;;;;;;4945697;29;20036;-68
2021/05/18 15:25:43;;;;;;;0.73;0.50;;;16.30;52.70;;;;;;4928491;29;20112;-66
2021/05/18 15:28:08;;;;;;;1.65;0.47;;;16.30;52.30;;;;;;4945090;29;20043;-66
2021/05/18 15:30:34;;;;;;;1.58;0.50;;;16.40;52.30;;;;;;4945066;29;20268;-68
2021/05/18 15:32:59;;;;;;;1.45;0.70;;;16.40;52.60;;;;;;4947220;29;20039;-68
2021/05/18 15:35:25;;;;;;;5.05;0.60;;;16.40;52.80;;;;;;4913051;29;20042;-67
2021/05/18 15:37:50;;;;;;;2.05;0.50;;;16.40;52.80;;;;;;4945224;29;20054;-68
2021/05/18 15:40:16;;;;;;;1.45;0.60;;;16.40;52.80;;;;;;4945014;29;20051;-68
2021/05/18 15:42:41;;;;;;;2.42;0.50;;;16.30;52.50;;;;;;4943979;29;20036;-69
2021/05/18 15:45:08;;;;;;;3.05;0.77;;;16.30;52.10;;;;;;4929734;29;20031;-70
2021/05/18 15:47:33;;;;;;;1.45;0.60;;;16.30;52.40;;;;;;4928592;29;20052;-68
2021/05/18 15:49:59;;;;;;;2.13;0.50;;;16.40;52.70;;;;;;4945033;29;20054;-69
2021/05/18 15:52:24;;;;;;;2.85;0.50;;;16.30;52.30;;;;;;4944934;29;20076;-68
2021/05/18 15:54:50;;;;;;;0.90;0.50;;;16.40;52.80;;;;;;4944881;29;20036;-72
2021/05/18 15:57:16;;;;;;;0.57;0.47;;;16.40;52.90;;;;;;4928078;29;20031;-68
2021/05/18 15:59:44;;;;;;;1.17;0.60;;;16.40;52.60;;;;;;4929546;29;20062;-68
2021/05/18 16:02:09;;;;;;;1.63;0.57;;;16.40;53.00;;;;;;4944774;29;20360;-67
2021/05/18 16:04:35;;;;;;;1.90;0.50;;;16.40;53.20;;;;;;4944950;29;20039;-68
2021/05/18 16:07:06;;;;;;;0.90;0.47;;;16.40;52.80;;;;;;4944318;29;20095;-68
2021/05/18 16:09:32;;;;;;;2.15;0.50;;;16.40;52.80;;;;;;4944967;29;20036;-68
2021/05/18 16:11:57;;;;;;;1.33;0.40;;;16.30;52.90;;;;;;4946718;29;20316;-69
2021/05/18 16:14:23;;;;;;;0.68;0.40;;;16.30;52.20;;;;;;4944870;29;20036;-65
2021/05/18 16:16:49;;;;;;;1.90;0.40;;;16.30;52.80;;;;;;4944916;29;20099;-65
2021/05/18 16:19:15;;;;;;;2.17;0.40;;;16.30;53.70;;;;;;4944456;29;20054;-67
2021/05/18 16:21:40;;;;;;;1.73;0.50;;;16.30;54.70;;;;;;4944691;29;20058;-69
2021/05/18 16:24:06;;;;;;;1.42;0.50;;;16.30;54.80;;;;;;4946298;29;20090;-70
2021/05/18 16:26:33;;;;;;;0.52;0.40;;;16.30;54.50;;;;;;4944262;29;20036;-67
2021/05/18 16:29:00;;;;;;;1.15;0.40;;;16.30;54.30;;;;;;4944597;29;20047;-68
2021/05/18 16:31:27;;;;;;;4.07;0.50;;;16.30;54.40;;;;;;4944800;29;20090;-68
2021/05/18 16:33:52;;;;;;;2.05;0.50;;;16.30;54.40;;;;;;4944646;29;20059;-69
2021/05/18 16:36:18;;;;;;;1.63;0.40;;;16.30;54.10;;;;;;4944537;29;20036;-69
2021/05/18 16:38:44;;;;;;;3.95;1.80;;;16.30;53.60;;;;;;4946881;29;20035;-70
2021/05/18 16:41:10;;;;;;;3.22;1.52;;;16.20;53.20;;;;;;4927732;29;20032;-68
2021/05/18 16:43:35;;;;;;;3.40;1.10;;;16.30;53.10;;;;;;4944341;29;20271;-67
2021/05/18 16:46:01;;;;;;;1.92;1.02;;;16.20;51.40;;;;;;4944412;29;20040;-70
2021/05/18 16:48:27;;;;;;;2.03;0.60;;;16.20;52.20;;;;;;4927529;29;20219;-70
2021/05/18 16:50:54;;;;;;;3.83;0.50;;;16.20;51.50;;;;;;4946162;29;20038;-66
2021/05/18 16:53:20;;;;;;;2.40;0.43;;;16.20;51.80;;;;;;4944314;29;20040;-65
2021/05/18 16:55:45;;;;;;;1.83;0.70;;;16.20;52.00;;;;;;4947404;29;20039;-67
2021/05/18 16:58:11;;;;;;;1.40;0.45;;;16.00;52.00;;;;;;4947842;29;20048;-68
2021/05/18 17:00:37;;;;;;;0.45;0.45;;;15.90;51.60;;;;;;4947900;29;20036;-68
2021/05/18 17:03:03;;;;;;;1.88;0.50;;;16.00;52.30;;;;;;4949662;29;20339;-65
2021/05/18 17:05:30;;;;;;;1.48;0.50;;;16.00;52.70;;;;;;4948278;29;20040;-65
2021/05/18 17:07:55;;;;;;;3.42;0.60;;;16.00;52.80;;;;;;4947674;29;20039;-66
2021/05/18 17:10:22;;;;;;;1.20;0.50;;;16.00;52.80;;;;;;4930667;29;20040;-65
2021/05/18 17:12:49;;;;;;;2.40;0.63;;;16.00;52.60;;;;;;4946804;29;20108;-69
2021/05/18 17:15:15;;;;;;;2.80;0.60;;;16.00;52.40;;;;;;4930777;29;20043;-68
2021/05/18 17:17:40;;;;;;;0.95;0.40;;;15.90;52.90;;;;;;4949230;29;20038;-67
2021/05/18 17:20:06;;;;;;;0.98;0.50;;;16.00;52.80;;;;;;4947536;29;20039;-68
2021/05/18 17:22:32;;;;;;;2.08;0.60;;;15.90;53.00;;;;;;4947925;29;20028;-67
2021/05/18 17:24:57;;;;;;;0.52;0.40;;;15.80;52.90;;;;;;4947699;29;20082;-67
2021/05/18 17:27:23;;;;;;;0.95;0.45;;;15.80;53.30;;;;;;4947532;29;20058;-68
2021/05/18 17:29:49;;;;;;;2.08;0.52;;;15.80;53.50;;;;;;4949347;29;20330;-67
2021/05/18 17:32:15;;;;;;;0.88;0.50;;;15.80;53.60;;;;;;4947586;29;20023;-64
2021/05/18 17:34:40;;;;;;;3.33;1.10;;;15.80;53.50;;;;;;4947185;29;20370;-68